Terminal Aerodrome Forecast
Issued by NWS Pueblo, CO

Home | Current Version | Previous Version | Text Only | Print | Product List | Glossary On
Versions: 1 2 3 4 5 6 7 8 9 10 11 12 13 14 15 16
000
FTUS45 KPUB 201120
TAFCOS
TAF
KCOS 201120Z 2012/2112 33010KT P6SM SCT090 BKN120 BKN200
     FM201700 03012KT P6SM VCSH SCT040 BKN080
     FM210400 34007KT P6SM FEW080 SCT150=

USA.gov is the U.S. government's official web portal to all federal, state and local government web resources and services.